This is the latest recevied weather packets stored in our database for station/object WA1NHP. If no packets are shown the sender has not sent any weather packets the latest 10 day(s).
| Time | Temp. | Humidity | Pressure | Rain* | Wind** | Luminosity | Snow |
|---|---|---|---|---|---|---|---|
| 1777743243 | 11.11° C | 79% | 1023.9 hPa | 0 mm | - | 487 W/m² | - |
| 1777742644 | 10.56° C | 84% | 1023.9 hPa | 0 mm | - | 468 W/m² | - |
| 1777742043 | 10° C | 80% | 1023.9 hPa | 0 mm | - | 352 W/m² | - |
| 1777741443 | 10.56° C | 79% | 1023.9 hPa | 0 mm | - | 417 W/m² | - |
| 1777740844 | 10° C | 79% | 1023.9 hPa | 0 mm | - | 390 W/m² | - |
| 1777740244 | 10° C | 85% | 1023.9 hPa | 0.25 mm | - | 599 W/m² | - |
| 1777739643 | 9.44° C | 86% | 1023.9 hPa | 0.25 mm | - | 385 W/m² | - |
| 1777739044 | 9.44° C | 88% | 1023.9 hPa | 0.25 mm | - | 417 W/m² | - |
| 1777738444 | 9.44° C | 86% | 1023.9 hPa | 0.25 mm | - | 274 W/m² | - |
| 1777737843 | 10.56° C | 90% | 1023.9 hPa | 0.25 mm | - | 1208 W/m² | - |
| 1777737244 | 8.89° C | 91% | 1023.9 hPa | 0.25 mm | - | 404 W/m² | - |
| 1777736644 | 8.89° C | 91% | 1023.9 hPa | 0 mm | - | 229 W/m² | - |
| 1777736043 | 8.89° C | 88% | 1023.9 hPa | 0 mm | - | 95 W/m² | - |
| 1777735444 | 9.44° C | 85% | 1023.9 hPa | 0 mm | - | 155 W/m² | - |
| 1777734844 | 10° C | 88% | 1023.9 hPa | 0 mm | - | 1345 W/m² | - |
| 1777734244 | 8.89° C | 90% | 1023.9 hPa | 0 mm | - | 482 W/m² | - |
| 1777733644 | 8.33° C | 89% | 1023.9 hPa | 0 mm | - | 162 W/m² | - |
| 1777733043 | 8.33° C | 90% | 1023.9 hPa | 0 mm | - | 232 W/m² | - |
| 1777732443 | 8.89° C | 92% | 1023.9 hPa | 0 mm | - | 274 W/m² | - |
| 1777731844 | 8.89° C | 95% | 1023.9 hPa | 0 mm | - | 406 W/m² | - |
| 1777731245 | 8.33° C | 96% | 1023.9 hPa | 0 mm | - | 376 W/m² | - |
| 1777730644 | 7.78° C | 96% | 1023.9 hPa | 0 mm | - | 294 W/m² | - |
| 1777730044 | 7.22° C | 96% | 1023.9 hPa | 0 mm | - | 213 W/m² | - |
| 1777729444 | 7.22° C | 96% | 1023.9 hPa | 0 mm | - | 181 W/m² | - |
| 1777728844 | 7.22° C | 96% | 1023.9 hPa | 0 mm | - | 65 W/m² | - |
* Rain latest hour (hover to see other rain measurements)
** Current wind speed in m/s (hover to see current wind gust speed)